Time;durP1;ratioP1;P1;durP2;ratioP2;P2;SDS_P1;SDS_P2;PMS_P1;PMS_P2;Temp;Humidity;BMP_temperature;BMP_pressure;BME280_temperature;BME280_humidity;BME280_pressure;Samples;Min_cycle;Max_cycle;Signal;HPM_P1;HPM_P2
2021/04/01 00:02:07;;;;;;;;;;;4.40;99.90;;;;;;5090998;28;20002;-70
2021/04/01 00:04:33;;;;;;;;;;;4.40;99.90;;;;;;5087005;28;19913;-68
2021/04/01 00:07:00;;;;;;;;;;;4.40;99.90;;;;;;5087243;28;19922;-70
2021/04/01 00:09:26;;;;;;;;;;;4.40;99.90;;;;;;5091993;28;19931;-69
2021/04/01 00:11:52;;;;;;;;;;;4.30;99.90;;;;;;5090881;28;19920;-71
2021/04/01 00:14:21;;;;;;;;;;;4.30;99.90;;;;;;5093597;28;19916;-69
2021/04/01 00:16:47;;;;;;;;;;;4.30;99.90;;;;;;5093245;28;19920;-69
2021/04/01 00:19:13;;;;;;;;;;;4.30;99.90;;;;;;5088053;28;19916;-70
2021/04/01 00:21:39;;;;;;;;;;;4.30;99.90;;;;;;5084316;28;19917;-71
2021/04/01 00:24:05;;;;;;;;;;;4.20;99.90;;;;;;5091547;28;20366;-71
2021/04/01 00:26:31;;;;;;;;;;;4.20;99.90;;;;;;5094247;28;20404;-70
2021/04/01 00:28:57;;;;;;;;;;;4.20;99.90;;;;;;5090724;28;19942;-72
2021/04/01 00:31:23;;;;;;;;;;;4.10;99.90;;;;;;5087039;28;19916;-70
2021/04/01 00:33:48;;;;;;;;;;;4.10;99.90;;;;;;5090585;28;19966;-70
2021/04/01 00:36:14;;;;;;;;;;;4.10;99.90;;;;;;5085888;28;20360;-71
2021/04/01 00:38:40;;;;;;;;;;;4.10;99.90;;;;;;5083997;28;19962;-70
2021/04/01 00:41:06;;;;;;;;;;;4.00;99.90;;;;;;5089412;28;20007;-69
2021/04/01 00:43:33;;;;;;;;;;;4.00;99.90;;;;;;5092602;28;20299;-69
2021/04/01 00:45:58;;;;;;;;;;;4.00;99.90;;;;;;5083930;28;19920;-70
2021/04/01 00:48:24;;;;;;;;;;;4.00;99.90;;;;;;5088848;28;19924;-69
2021/04/01 00:50:50;;;;;;;;;;;4.00;99.90;;;;;;5092977;28;20646;-68
2021/04/01 00:53:16;;;;;;;;;;;4.00;99.90;;;;;;5080519;28;19924;-68
2021/04/01 00:55:42;;;;;;;;;;;3.90;99.90;;;;;;5083305;28;19962;-68
2021/04/01 00:58:08;;;;;;;;;;;3.90;99.90;;;;;;5087678;28;19961;-68
2021/04/01 01:00:35;;;;;;;;;;;3.90;99.90;;;;;;5089225;28;19913;-67
2021/04/01 01:03:01;;;;;;;;;;;3.90;99.90;;;;;;5084389;28;19916;-67
2021/04/01 01:05:28;;;;;;;;;;;4.00;99.90;;;;;;5085753;28;19912;-68
2021/04/01 01:07:54;;;;;;;;;;;3.90;99.90;;;;;;5079165;28;19920;-68
2021/04/01 01:10:30;;;;;;;;;;;3.90;99.90;;;;;;5090879;28;19920;-67
2021/04/01 01:12:59;;;;;;;;;;;3.90;99.90;;;;;;5088332;28;19916;-67
2021/04/01 01:15:25;;;;;;;;;;;3.90;99.90;;;;;;5089283;28;19916;-68
2021/04/01 01:17:52;;;;;;;;;;;3.80;99.90;;;;;;5089573;28;19931;-68
2021/04/01 01:20:20;;;;;;;;;;;3.90;99.90;;;;;;5090207;28;19916;-66
2021/04/01 01:22:46;;;;;;;;;;;3.90;99.90;;;;;;5089927;28;19912;-67
2021/04/01 01:25:12;;;;;;;;;;;3.80;99.90;;;;;;5088678;28;20361;-66
2021/04/01 01:27:38;;;;;;;;;;;3.80;99.90;;;;;;5092453;28;19916;-67
2021/04/01 01:30:22;;;;;;;;;;;3.80;99.90;;;;;;5087697;28;20387;-66
2021/04/01 01:32:56;;;;;;;;;;;3.80;99.90;;;;;;5086846;28;19912;-66
2021/04/01 01:35:27;;;;;;;;;;;3.80;99.90;;;;;;5087370;28;19916;-66
2021/04/01 01:37:57;;;;;;;;;;;3.80;99.90;;;;;;5085023;28;19923;-66
2021/04/01 01:40:24;;;;;;;;;;;3.80;99.90;;;;;;5089527;28;19912;-67
2021/04/01 01:42:50;;;;;;;;;;;3.80;99.90;;;;;;5081820;28;19952;-67
2021/04/01 01:45:16;;;;;;;;;;;3.80;99.90;;;;;;5086441;28;19912;-67
2021/04/01 01:47:42;;;;;;;;;;;3.80;99.90;;;;;;5091502;28;19930;-67
2021/04/01 01:50:11;;;;;;;;;;;3.70;99.90;;;;;;5090734;28;20018;-68
2021/04/01 01:52:38;;;;;;;;;;;3.70;99.90;;;;;;5086660;28;20395;-66
2021/04/01 01:55:04;;;;;;;;;;;3.80;99.90;;;;;;5077562;28;19912;-67
2021/04/01 01:57:31;;;;;;;;;;;3.70;99.90;;;;;;5090463;28;19912;-68
2021/04/01 01:59:57;;;;;;;;;;;3.60;99.90;;;;;;5090787;28;19912;-67
2021/04/01 02:02:23;;;;;;;;;;;3.60;99.90;;;;;;5091441;28;19919;-68
2021/04/01 02:04:49;;;;;;;;;;;3.60;99.90;;;;;;5091680;28;19937;-67
2021/04/01 02:07:15;;;;;;;;;;;3.60;99.90;;;;;;5091241;28;20905;-68
2021/04/01 02:09:47;;;;;;;;;;;3.50;99.90;;;;;;5090869;28;20307;-68
2021/04/01 02:12:16;;;;;;;;;;;3.60;99.90;;;;;;5089306;28;19916;-67
2021/04/01 02:14:42;;;;;;;;;;;3.60;99.90;;;;;;5090391;28;19917;-67
2021/04/01 02:17:09;;;;;;;;;;;3.60;99.90;;;;;;5087346;28;19917;-66
2021/04/01 02:19:35;;;;;;;;;;;3.60;99.90;;;;;;5087293;28;19916;-67
2021/04/01 02:22:01;;;;;;;;;;;3.70;99.90;;;;;;5088245;28;20446;-66
2021/04/01 02:24:27;;;;;;;;;;;3.60;99.90;;;;;;5087191;28;19917;-66
2021/04/01 02:26:56;;;;;;;;;;;3.50;99.90;;;;;;5087281;28;19985;-67
2021/04/01 02:29:22;;;;;;;;;;;3.50;99.90;;;;;;5087653;28;19935;-68
2021/04/01 02:31:48;;;;;;;;;;;3.40;99.90;;;;;;5088618;28;19917;-68
2021/04/01 02:34:14;;;;;;;;;;;3.40;99.90;;;;;;5090188;28;19920;-67
2021/04/01 02:36:41;;;;;;;;;;;3.40;99.90;;;;;;5086294;28;20360;-67
2021/04/01 02:39:07;;;;;;;;;;;3.40;99.90;;;;;;5086145;28;20300;-66
2021/04/01 02:41:33;;;;;;;;;;;3.30;99.90;;;;;;5087215;28;19922;-68
2021/04/01 02:43:59;;;;;;;;;;;3.30;99.90;;;;;;5085931;28;19916;-67
2021/04/01 02:46:24;;;;;;;;;;;3.30;99.90;;;;;;5093656;28;19912;-67
2021/04/01 02:48:50;;;;;;;;;;;3.40;99.90;;;;;;5092332;28;19939;-67
2021/04/01 02:51:16;;;;;;;;;;;3.40;99.90;;;;;;5093992;28;20261;-67
2021/04/01 02:53:42;;;;;;;;;;;3.40;99.90;;;;;;5094501;28;20367;-68
2021/04/01 02:56:08;;;;;;;;;;;3.40;99.90;;;;;;5093153;28;19931;-68
2021/04/01 02:58:35;;;;;;;;;;;3.40;99.90;;;;;;5089121;28;19923;-67
2021/04/01 03:01:01;;;;;;;;;;;3.30;99.90;;;;;;5091943;28;19923;-66
2021/04/01 03:03:33;;;;;;;;;;;3.20;99.90;;;;;;5089621;28;19990;-68
2021/04/01 03:06:00;;;;;;;;;;;3.20;99.90;;;;;;5086227;28;19923;-68
2021/04/01 03:08:26;;;;;;;;;;;3.20;99.90;;;;;;5091184;28;19912;-68
2021/04/01 03:10:52;;;;;;;;;;;3.20;99.90;;;;;;5084815;28;19928;-67
2021/04/01 03:13:18;;;;;;;;;;;3.10;99.90;;;;;;5094922;28;19916;-67
2021/04/01 03:15:44;;;;;;;;;;;3.10;99.90;;;;;;5088492;28;19916;-66
2021/04/01 03:18:10;;;;;;;;;;;3.20;99.90;;;;;;5085112;28;19916;-67
2021/04/01 03:20:36;;;;;;;;;;;3.30;99.90;;;;;;5082099;28;19916;-67
2021/04/01 03:23:02;;;;;;;;;;;3.30;99.90;;;;;;5086915;28;20399;-66
2021/04/01 03:25:28;;;;;;;;;;;3.40;99.90;;;;;;5088123;28;19917;-68
2021/04/01 03:27:54;;;;;;;;;;;3.40;99.90;;;;;;5082482;28;19935;-67
2021/04/01 03:30:20;;;;;;;;;;;3.40;99.90;;;;;;5086629;28;19928;-68
2021/04/01 03:32:46;;;;;;;;;;;3.50;99.90;;;;;;5085951;28;20040;-68
2021/04/01 03:35:13;;;;;;;;;;;3.50;99.90;;;;;;5086175;28;19920;-67
2021/04/01 03:37:40;;;;;;;;;;;3.50;99.90;;;;;;5086226;28;19912;-68
2021/04/01 03:40:08;;;;;;;;;;;3.60;99.90;;;;;;5091144;28;19920;-67
2021/04/01 03:42:35;;;;;;;;;;;3.60;99.90;;;;;;5085053;28;19918;-68
2021/04/01 03:45:02;;;;;;;;;;;3.60;99.90;;;;;;5069721;28;19920;-68
2021/04/01 03:47:27;;;;;;;;;;;3.70;99.90;;;;;;5080774;28;19917;-68
2021/04/01 03:49:53;;;;;;;;;;;3.70;99.90;;;;;;5087666;28;20277;-65
2021/04/01 03:52:19;;;;;;;;;;;3.70;99.90;;;;;;5086935;28;19931;-64
2021/04/01 03:54:53;;;;;;;;;;;3.70;99.90;;;;;;5088749;28;19916;-63
2021/04/01 03:57:19;;;;;;;;;;;3.70;99.90;;;;;;5086799;28;20284;-64
2021/04/01 04:05:02;;;;;;;;;;;3.70;99.90;;;;;;5094625;28;19999;-64
2021/04/01 04:15:33;;;;;;;;;;;3.70;99.90;;;;;;5086333;28;19916;-64
2021/04/01 04:17:59;;;;;;;;;;;3.70;99.90;;;;;;5089432;28;19913;-64
2021/04/01 04:20:25;;;;;;;;;;;3.70;99.90;;;;;;5094083;28;20304;-64
2021/04/01 04:22:51;;;;;;;;;;;3.70;99.90;;;;;;5090487;28;20014;-64
2021/04/01 04:25:17;;;;;;;;;;;3.80;99.90;;;;;;5088541;28;20414;-64
2021/04/01 04:30:21;;;;;;;;;;;3.80;99.90;;;;;;5091201;28;20304;-64
2021/04/01 04:32:47;;;;;;;;;;;3.80;99.90;;;;;;5087749;28;19939;-64
2021/04/01 04:35:13;;;;;;;;;;;3.80;99.90;;;;;;5092465;28;19912;-65
2021/04/01 04:37:39;;;;;;;;;;;3.80;99.90;;;;;;5094271;28;20350;-64
2021/04/01 04:40:06;;;;;;;;;;;3.80;99.90;;;;;;5093864;28;19916;-64
2021/04/01 04:42:32;;;;;;;;;;;3.80;99.90;;;;;;5094266;28;20279;-64
2021/04/01 04:44:58;;;;;;;;;;;3.80;99.90;;;;;;5094858;28;19999;-64
2021/04/01 04:47:24;;;;;;;;;;;3.80;99.90;;;;;;5086148;28;19924;-64
2021/04/01 04:49:50;;;;;;;;;;;3.80;99.90;;;;;;5083440;28;19920;-64
2021/04/01 04:52:18;;;;;;;;;;;3.70;99.90;;;;;;5086238;28;20261;-64
2021/04/01 04:54:44;;;;;;;;;;;3.70;99.90;;;;;;5085244;28;20364;-64
2021/04/01 04:57:26;;;;;;;;;;;3.70;99.90;;;;;;5088736;28;19919;-64
2021/04/01 05:05:03;;;;;;;;;;;3.80;99.90;;;;;;5087721;28;20327;-64
2021/04/01 05:07:29;;;;;;;;;;;3.70;99.90;;;;;;5079463;28;19920;-64
2021/04/01 05:09:55;;;;;;;;;;;3.70;99.90;;;;;;5076566;28;19943;-64
2021/04/01 05:12:21;;;;;;;;;;;3.70;99.90;;;;;;5083227;28;20372;-64
2021/04/01 05:14:47;;;;;;;;;;;3.70;99.90;;;;;;5083148;28;19912;-64
2021/04/01 05:17:18;;;;;;;;;;;3.70;99.90;;;;;;5083468;28;19921;-64
2021/04/01 05:19:45;;;;;;;;;;;3.80;99.90;;;;;;5073321;28;19920;-65
2021/04/01 05:22:15;;;;;;;;;;;3.80;99.90;;;;;;5077457;28;19920;-65
2021/04/01 05:24:42;;;;;;;;;;;3.80;99.90;;;;;;5090285;28;19916;-64
2021/04/01 05:28:20;;;;;;;;;;;3.80;99.90;;;;;;5090122;28;19912;-65
2021/04/01 05:30:03;;;;;;;;;;;3.80;99.90;;;;;;5079941;28;19924;-64
2021/04/01 05:32:31;;;;;;;;;;;3.80;99.90;;;;;;5092006;28;20365;-65
2021/04/01 05:34:59;;;;;;;;;;;3.80;99.90;;;;;;5092753;28;20386;-64
2021/04/01 05:37:26;;;;;;;;;;;3.90;99.90;;;;;;5092655;28;20450;-65
2021/04/01 05:39:53;;;;;;;;;;;3.90;99.90;;;;;;5092985;28;19913;-65
2021/04/01 05:42:20;;;;;;;;;;;3.90;99.90;;;;;;5084600;28;21010;-65
2021/04/01 05:45:05;;;;;;;;;;;4.00;99.90;;;;;;5089701;28;19919;-65
2021/04/01 05:47:37;;;;;;;;;;;4.10;99.90;;;;;;5086779;28;19912;-65
2021/04/01 06:05:38;;;;;;;;;;;4.40;99.90;;;;;;5097258;28;20304;-65
2021/04/01 06:08:13;;;;;;;;;;;4.60;99.90;;;;;;5091012;28;19919;-65
2021/04/01 06:10:40;;;;;;;;;;;4.80;99.90;;;;;;5085932;28;19920;-65
2021/04/01 06:13:13;;;;;;;;;;;4.90;99.90;;;;;;5090148;28;19916;-65
2021/04/01 06:15:39;;;;;;;;;;;4.90;99.90;;;;;;5091621;28;19917;-65
2021/04/01 06:18:09;;;;;;;;;;;5.00;99.90;;;;;;5087812;28;19912;-64
2021/04/01 06:20:35;;;;;;;;;;;5.00;99.90;;;;;;5092006;28;20391;-65
2021/04/01 06:23:02;;;;;;;;;;;5.10;99.90;;;;;;5094291;28;19927;-65
2021/04/01 06:25:28;;;;;;;;;;;4.90;99.90;;;;;;5094959;28;19912;-65
2021/04/01 06:27:55;;;;;;;;;;;4.90;99.90;;;;;;5095375;28;19966;-64
2021/04/01 06:33:01;;;;;;;;;;;4.80;99.90;;;;;;5093647;28;19917;-65
2021/04/01 06:40:43;;;;;;;;;;;4.70;99.90;;;;;;5100845;28;19920;-64
2021/04/01 06:43:19;;;;;;;;;;;4.70;99.90;;;;;;5092880;28;19916;-65
2021/04/01 06:45:51;;;;;;;;;;;4.80;99.90;;;;;;5089729;28;19919;-65
2021/04/01 06:48:19;;;;;;;;;;;5.00;99.90;;;;;;5089986;28;19913;-66
2021/04/01 06:50:49;;;;;;;;;;;5.10;99.90;;;;;;5090114;28;19920;-66
2021/04/01 06:53:28;;;;;;;;;;;5.20;99.90;;;;;;5090467;28;19916;-66
2021/04/01 06:56:08;;;;;;;;;;;5.10;99.90;;;;;;5090037;28;19916;-65
2021/04/01 06:58:41;;;;;;;;;;;5.20;99.90;;;;;;5092894;28;19924;-64
2021/04/01 07:01:16;;;;;;;;;;;5.30;99.90;;;;;;5091896;28;19916;-65
2021/04/01 07:03:45;;;;;;;;;;;5.20;99.90;;;;;;5093502;28;19916;-64
2021/04/01 07:06:19;;;;;;;;;;;5.20;99.90;;;;;;5093063;27;19920;-65
2021/04/01 07:09:00;;;;;;;;;;;5.20;99.90;;;;;;5092141;28;20394;-65
2021/04/01 07:11:34;;;;;;;;;;;5.20;99.90;;;;;;5091619;28;19924;-65
2021/04/01 07:14:07;;;;;;;;;;;5.00;99.90;;;;;;5086163;28;19912;-64
2021/04/01 07:44:44;;;;;;;;;;;6.20;99.90;;;;;;5055225;28;19912;-64
2021/04/01 07:44:55;;;;;;;;;;;6.10;99.90;;;;;;5094469;28;19960;-65
2021/04/01 07:47:23;;;;;;;;;;;6.10;99.90;;;;;;5092815;28;20356;-64
2021/04/01 07:49:51;;;;;;;;;;;6.30;99.90;;;;;;5091549;28;19923;-64
2021/04/01 07:52:22;;;;;;;;;;;6.40;99.90;;;;;;5078537;28;20300;-64
2021/04/01 08:00:05;;;;;;;;;;;7.30;99.90;;;;;;5093313;28;20308;-64
2021/04/01 08:05:00;;;;;;;;;;;9.00;99.90;;;;;;5089924;28;20380;-64
2021/04/01 08:07:31;;;;;;;;;;;9.80;99.90;;;;;;5083819;28;19923;-63
2021/04/01 08:10:02;;;;;;;;;;;10.10;99.90;;;;;;5090466;28;19912;-63
2021/04/01 08:12:32;;;;;;;;;;;10.80;99.90;;;;;;5091069;28;19924;-63
2021/04/01 08:15:09;;;;;;;;;;;11.30;99.90;;;;;;5092346;28;19919;-63
2021/04/01 08:17:56;;;;;;;;;;;11.60;99.90;;;;;;5089248;28;19912;-63
2021/04/01 08:20:23;;;;;;;;;;;12.10;99.90;;;;;;5090860;28;19942;-61
2021/04/01 08:23:04;;;;;;;;;;;13.00;99.90;;;;;;5085809;28;19912;-61
2021/04/01 08:25:35;;;;;;;;;;;12.50;99.90;;;;;;5089538;28;19916;-63
2021/04/01 08:28:12;;;;;;;;;;;12.90;99.90;;;;;;5091193;28;19916;-64
2021/04/01 08:35:54;;;;;;;;;;;13.80;99.90;;;;;;5092023;28;19912;-64
2021/04/01 08:38:20;;;;;;;;;;;13.90;99.90;;;;;;5091253;28;19912;-64
2021/04/01 08:40:47;;;;;;;;;;;13.80;99.90;;;;;;5083340;28;19912;-64
2021/04/01 08:43:22;;;;;;;;;;;13.80;99.90;;;;;;5088748;28;19927;-65
2021/04/01 08:46:03;;;;;;;;;;;13.60;99.90;;;;;;5090141;28;19916;-63
2021/04/01 08:48:29;;;;;;;;;;;13.90;99.90;;;;;;5091376;28;19943;-63
2021/04/01 08:51:07;;;;;;;;;;;14.30;99.90;;;;;;5089060;28;19927;-63
2021/04/01 08:53:35;;;;;;;;;;;14.40;99.90;;;;;;5090643;28;19916;-63
2021/04/01 08:56:22;;;;;;;;;;;14.20;99.90;;;;;;5085222;28;19924;-63
2021/04/01 08:58:58;;;;;;;;;;;13.90;99.90;;;;;;5084890;28;19916;-64
2021/04/01 09:01:26;;;;;;;;;;;13.40;99.90;;;;;;5083044;28;19917;-63
2021/04/01 09:03:52;;;;;;;;;;;14.20;99.90;;;;;;5087719;28;19912;-63
2021/04/01 09:06:19;;;;;;;;;;;15.40;99.90;;;;;;5087679;28;19925;-64
2021/04/01 09:09:10;;;;;;;;;;;14.90;99.90;;;;;;5090193;28;19923;-64
2021/04/01 09:11:43;;;;;;;;;;;14.60;99.90;;;;;;5079778;28;19920;-65
2021/04/01 09:14:19;;;;;;;;;;;15.00;99.90;;;;;;5087469;28;19919;-64
2021/04/01 09:16:56;;;;;;;;;;;16.40;99.90;;;;;;5087304;28;19916;-64
2021/04/01 09:19:25;;;;;;;;;;;16.20;99.90;;;;;;5086882;28;19912;-65
2021/04/01 09:21:51;;;;;;;;;;;15.70;99.90;;;;;;5087283;28;19919;-65
2021/04/01 09:24:17;;;;;;;;;;;15.80;99.90;;;;;;5085463;28;19920;-65
2021/04/01 09:26:49;;;;;;;;;;;16.00;99.90;;;;;;5086638;28;19913;-65
2021/04/01 09:29:16;;;;;;;;;;;16.40;99.90;;;;;;5085817;28;19939;-65
2021/04/01 09:31:47;;;;;;;;;;;16.50;99.90;;;;;;5091726;28;19946;-65
2021/04/01 09:34:16;;;;;;;;;;;16.70;99.90;;;;;;5090578;28;19923;-64
2021/04/01 09:36:42;;;;;;;;;;;17.20;99.20;;;;;;5088753;28;19912;-65
2021/04/01 09:41:44;;;;;;;2.13;0.50;;;17.10;96.20;;;;;;5096204;28;20760;-65
2021/04/01 09:44:10;;;;;;;3.70;0.50;;;16.70;96.30;;;;;;5088557;28;20883;-65
2021/04/01 09:46:37;;;;;;;2.63;0.50;;;17.00;96.80;;;;;;5086494;28;20791;-65
2021/04/01 09:49:04;;;;;;;3.10;0.60;;;17.30;96.70;;;;;;5083984;28;20761;-65
2021/04/01 09:51:31;;;;;;;1.13;0.40;;;18.10;94.70;;;;;;5087616;28;20415;-66
2021/04/01 09:53:58;;;;;;;3.75;0.40;;;18.10;93.30;;;;;;5087399;28;20706;-65
2021/04/01 09:56:28;;;;;;;1.50;0.40;;;18.70;93.70;;;;;;5087845;28;20391;-65
2021/04/01 09:58:55;;;;;;;2.00;0.30;;;20.50;92.80;;;;;;5086337;28;20407;-65
2021/04/01 10:01:30;;;;;;;2.83;0.50;;;21.40;88.00;;;;;;5089303;28;20403;-65
2021/04/01 10:04:08;;;;;;;1.98;0.30;;;21.80;86.80;;;;;;5085382;28;20387;-66
2021/04/01 10:06:45;;;;;;;1.08;0.40;;;21.10;82.10;;;;;;5070047;28;20923;-66
2021/04/01 10:09:17;;;;;;;3.13;0.50;;;20.80;85.00;;;;;;5083024;28;20399;-67
2021/04/01 10:11:49;;;;;;;2.33;0.40;;;18.60;86.10;;;;;;5082529;28;20394;-67
2021/04/01 10:14:16;;;;;;;3.50;0.45;;;17.60;83.80;;;;;;5066717;28;20389;-65
2021/04/01 10:16:50;;;;;;;2.83;0.40;;;18.30;87.90;;;;;;5077940;28;20878;-72
2021/04/01 10:19:22;;;;;;;2.28;0.40;;;20.00;84.90;;;;;;5065298;28;20400;-73
2021/04/01 10:21:48;;;;;;;3.60;0.30;;;20.20;85.10;;;;;;5084866;28;20377;-73
2021/04/01 10:24:25;;;;;;;1.13;0.30;;;20.60;81.40;;;;;;5086372;28;20392;-73
2021/04/01 10:32:13;;;;;;;0.70;0.30;;;20.50;78.30;;;;;;5094122;28;20396;-74
2021/04/01 10:34:44;;;;;;;4.60;0.40;;;19.10;82.00;;;;;;5067024;28;20382;-75
2021/04/01 10:37:12;;;;;;;1.98;0.32;;;18.70;76.10;;;;;;5081887;28;20469;-72
2021/04/01 10:39:39;;;;;;;2.85;0.35;;;17.20;77.10;;;;;;5080711;28;20395;-73
2021/04/01 10:42:10;;;;;;;2.53;0.50;;;17.00;79.80;;;;;;5084518;28;20387;-73
2021/04/01 10:44:36;;;;;;;1.85;0.40;;;16.80;80.80;;;;;;5083230;28;20772;-71
2021/04/01 10:47:03;;;;;;;;;;;17.00;79.90;;;;;;5088953;28;20393;-73
2021/04/01 10:49:33;;;;;;;;;;;16.90;79.30;;;;;;5067522;28;19909;-72
2021/04/01 10:52:00;;;;;;;;;;;18.20;80.30;;;;;;5086832;28;20285;-73
2021/04/01 10:54:39;;;;;;;;;;;17.40;77.80;;;;;;5088388;28;19915;-74
2021/04/01 10:57:05;;;;;;;;;;;17.30;78.90;;;;;;5089851;28;19912;-72
2021/04/01 10:59:42;;;;;;;;;;;16.80;79.80;;;;;;5088482;28;19912;-71
2021/04/01 11:02:10;;;;;;;;;;;15.80;78.20;;;;;;5087646;28;20276;-72
2021/04/01 11:04:36;;;;;;;;;;;15.40;80.00;;;;;;5090671;28;19919;-73
2021/04/01 11:07:02;;;;;;;;;;;14.50;80.60;;;;;;5067156;28;19916;-72
2021/04/01 11:09:29;;;;;;;;;;;14.30;79.40;;;;;;5083872;28;19963;-72
2021/04/01 11:14:40;;;;;;;;;;;13.90;78.60;;;;;;5091105;28;19935;-71
2021/04/01 11:26:16;;;;;;;;;;;14.00;83.80;;;;;;5091283;28;19915;-69
2021/04/01 11:28:50;;;;;;;;;;;15.30;81.40;;;;;;5074237;28;19912;-72
2021/04/01 11:31:22;;;;;;;;;;;15.50;80.40;;;;;;5089806;28;19923;-70
2021/04/01 11:33:48;;;;;;;;;;;16.80;77.00;;;;;;5083808;28;19908;-71
2021/04/01 11:36:16;;;;;;;;;;;17.70;78.30;;;;;;5084596;28;20376;-70
2021/04/01 11:38:45;;;;;;;;;;;18.90;73.80;;;;;;5082785;28;19905;-71
2021/04/01 11:41:14;;;;;;;;;;;21.40;70.10;;;;;;5075392;28;20376;-69
2021/04/01 11:43:40;;;;;;;;;;;23.90;66.70;;;;;;5079817;28;20372;-70
2021/04/01 11:46:13;;;;;;;;;;;26.30;60.50;;;;;;5080076;28;19908;-71
2021/04/01 11:48:39;;;;;;;;;;;27.40;59.10;;;;;;5084166;28;19904;-72
2021/04/01 11:51:06;;;;;;;;;;;26.30;53.00;;;;;;5083805;28;19924;-71
2021/04/01 11:53:32;;;;;;;;;;;27.00;52.60;;;;;;5091983;28;19908;-74
2021/04/01 11:55:59;;;;;;;;;;;25.70;51.20;;;;;;5095242;28;20263;-73
2021/04/01 11:58:29;;;;;;;;;;;25.30;49.30;;;;;;5073391;28;19927;-71
2021/04/01 12:01:02;;;;;;;;;;;26.10;49.60;;;;;;5076391;28;19916;-71
2021/04/01 12:03:43;;;;;;;;;;;26.60;45.60;;;;;;5100482;28;19908;-70
2021/04/01 12:06:09;;;;;;;;;;;27.30;45.90;;;;;;5079972;28;19919;-72
2021/04/01 12:08:38;;;;;;;;;;;29.60;47.90;;;;;;5093696;28;19915;-71
2021/04/01 12:11:04;;;;;;;3.38;0.52;;;29.10;43.90;;;;;;5085971;28;20392;-73
2021/04/01 12:20:55;;;;;;;2.67;0.52;;;25.10;41.10;;;;;;5086546;28;20381;-71
2021/04/01 12:23:24;;;;;;;2.85;0.40;;;24.80;43.40;;;;;;5089479;28;20849;-74
2021/04/01 12:26:00;;;;;;;5.53;0.60;;;24.40;43.20;;;;;;5090870;28;20403;-71
2021/04/01 12:28:28;;;;;;;2.30;0.30;;;25.60;42.20;;;;;;5088522;28;20392;-66
2021/04/01 12:30:54;;;;;;;7.03;0.80;;;24.40;41.40;;;;;;5084128;28;20403;-73
2021/04/01 12:33:25;;;;;;;1.55;0.30;;;23.90;43.20;;;;;;5090078;28;20392;-67
2021/04/01 12:35:52;;;;;;;1.02;0.30;;;24.10;42.20;;;;;;5080635;28;20382;-68
2021/04/01 12:38:28;;;;;;;1.30;0.40;;;23.00;43.20;;;;;;5076444;28;20394;-66
2021/04/01 12:40:54;;;;;;;3.50;0.40;;;22.40;42.20;;;;;;5070305;28;20814;-66
2021/04/01 12:43:29;;;;;;;2.08;0.43;;;22.50;44.60;;;;;;5081356;28;20426;-67
2021/04/01 12:45:55;;;;;;;1.30;0.50;;;23.30;42.80;;;;;;5084724;28;20395;-67
2021/04/01 12:48:21;;;;;;;0.82;0.40;;;22.00;44.10;;;;;;5078465;28;21070;-67
2021/04/01 12:50:49;;;;;;;2.13;0.38;;;22.40;43.30;;;;;;5080765;28;20772;-67
2021/04/01 12:53:21;;;;;;;1.42;0.38;;;22.60;44.90;;;;;;5087635;28;20911;-68
2021/04/01 12:58:32;;;;;;;4.55;0.40;;;25.50;41.00;;;;;;5074111;28;20403;-67
2021/04/01 13:01:05;;;;;;;1.93;0.60;;;24.50;37.60;;;;;;5082625;28;20401;-68
2021/04/01 13:03:31;;;;;;;2.20;0.50;;;23.90;39.90;;;;;;5078298;28;20378;-67
2021/04/01 13:06:03;;;;;;;1.80;0.40;;;23.40;40.10;;;;;;5088909;28;20377;-67
2021/04/01 13:11:11;;;;;;;1.70;0.47;;;25.40;38.80;;;;;;5098900;28;20379;-67
2021/04/01 13:13:37;;;;;;;;;;;25.00;38.40;;;;;;5092001;28;20384;-66
2021/04/01 13:16:03;;;;;;;;;;;24.60;38.50;;;;;;5093559;28;19918;-65
2021/04/01 13:18:29;;;;;;;;;;;25.40;36.80;;;;;;5093570;28;19908;-66
2021/04/01 13:20:55;;;;;;;;;;;26.70;36.30;;;;;;5093579;28;19912;-65
2021/04/01 13:23:30;;;;;;;;;;;26.10;35.60;;;;;;5090837;28;19911;-65
2021/04/01 13:25:56;;;;;;;;;;;24.10;35.00;;;;;;5092392;28;19931;-66
2021/04/01 13:28:22;;;;;;;;;;;23.90;36.90;;;;;;5089892;28;19924;-66
2021/04/01 13:30:54;;;;;;;;;;;22.90;35.60;;;;;;5097454;28;19917;-67
2021/04/01 13:33:30;;;;;;;;;;;22.10;36.30;;;;;;5073895;28;19920;-71
2021/04/01 13:36:01;;;;;;;;;;;21.80;38.20;;;;;;5071742;28;19904;-71
2021/04/01 13:38:28;;;;;;;;;;;20.80;38.40;;;;;;5088828;28;19912;-74
2021/04/01 13:40:55;;;;;;;;;;;21.20;38.10;;;;;;5093067;28;19912;-72
2021/04/01 13:43:29;;;;;;;;;;;22.70;40.20;;;;;;5088301;28;19915;-72
2021/04/01 13:45:55;;;;;;;;;;;23.10;36.10;;;;;;5082784;28;19908;-73
2021/04/01 13:48:24;;;;;;;;;;;22.50;36.30;;;;;;5079315;28;19955;-73
2021/04/01 13:50:56;;;;;;;;;;;22.30;36.70;;;;;;5080266;28;20365;-73
2021/04/01 13:56:02;;;;;;;;;;;22.00;39.80;;;;;;5080673;28;19912;-72
2021/04/01 14:09:34;;;;;;;;;;;14.10;58.70;;;;;;5079502;28;19915;-72
2021/04/01 14:12:01;;;;;;;;;;;16.30;54.90;;;;;;5073023;28;19916;-72
2021/04/01 14:14:27;;;;;;;;;;;16.50;53.60;;;;;;5082948;28;20355;-73
2021/04/01 14:16:53;;;;;;;;;;;15.90;52.60;;;;;;5081437;28;19919;-74
2021/04/01 14:19:20;;;;;;;;;;;14.00;56.00;;;;;;5092053;28;19908;-72
2021/04/01 14:21:48;;;;;;;;;;;15.10;56.80;;;;;;5084725;28;19916;-74
2021/04/01 14:24:20;;;;;;;;;;;16.00;53.60;;;;;;5084323;28;19908;-73
2021/04/01 14:26:51;;;;;;;;;;;16.50;53.60;;;;;;5090644;28;19916;-75
2021/04/01 14:29:17;;;;;;;;;;;14.30;55.30;;;;;;5074167;28;19924;-71
2021/04/01 14:31:43;;;;;;;;;;;14.20;57.40;;;;;;5071877;28;20015;-74
2021/04/01 14:34:09;;;;;;;;;;;14.00;57.50;;;;;;5083004;28;19904;-73
2021/04/01 14:36:35;;;;;;;;;;;14.20;57.30;;;;;;5091691;28;19953;-73
2021/04/01 14:39:02;;;;;;;;;;;15.30;56.40;;;;;;5083634;28;20345;-73
2021/04/01 14:41:45;;;;;;;;;;;15.60;54.40;;;;;;5089467;28;19939;-73
2021/04/01 14:44:19;;;;;;;;;;;16.10;53.30;;;;;;5094185;28;19924;-71
2021/04/01 14:46:45;;;;;;;;;;;15.60;53.70;;;;;;5090152;28;19966;-70
2021/04/01 14:49:13;;;;;;;;;;;14.70;53.60;;;;;;5091654;28;20382;-70
2021/04/01 14:51:39;;;;;;;;;;;14.10;54.70;;;;;;5077443;28;19916;-72
2021/04/01 14:54:09;;;;;;;;;;;13.40;57.20;;;;;;5094230;28;19904;-75
2021/04/01 14:56:36;;;;;;;;;;;13.80;57.80;;;;;;5096158;28;19908;-74
2021/04/01 14:59:13;;;;;;;;;;;12.90;58.30;;;;;;5096370;28;20352;-72
2021/04/01 15:01:39;;;;;;;;;;;13.50;57.70;;;;;;5096205;28;19919;-72
2021/04/01 15:04:05;;;;;;;;;;;14.60;57.00;;;;;;5088560;28;19909;-73
2021/04/01 15:06:31;;;;;;;;;;;14.20;54.10;;;;;;5087422;28;19916;-72
2021/04/01 15:08:57;;;;;;;;;;;11.80;58.40;;;;;;5081206;28;19917;-54
2021/04/01 15:11:23;;;;;;;;;;;10.90;61.50;;;;;;5087031;28;20320;-50
2021/04/01 15:13:49;;;;;;;;;;;10.30;65.70;;;;;;5094157;28;19908;-50
2021/04/01 15:16:15;;;;;;;;;;;10.00;67.30;;;;;;5088157;28;19908;-54
2021/04/01 15:18:41;;;;;;;;;;;9.90;68.30;;;;;;5089518;28;19908;-51
2021/04/01 15:21:07;;;;;;;;;;;9.80;70.50;;;;;;5080091;28;19915;-52
2021/04/01 15:23:33;;;;;;;;;;;9.80;70.60;;;;;;5083601;28;19988;-51
2021/04/01 15:25:59;;;;;;;;;;;10.10;68.40;;;;;;5079778;28;19912;-52
2021/04/01 15:28:25;;;;;;;;;;;10.20;68.10;;;;;;5074379;28;19923;-51
2021/04/01 15:30:51;;;;;;;;;;;10.20;67.50;;;;;;5084312;28;19924;-51
2021/04/01 15:33:16;;;;;;;;;;;10.70;68.20;;;;;;5083567;28;19935;-49
2021/04/01 15:35:42;;;;;;;;;;;10.60;66.50;;;;;;5085242;28;20360;-49
2021/04/01 15:38:08;;;;;;;;;;;10.40;63.70;;;;;;5099163;28;19915;-51
2021/04/01 15:40:35;;;;;;;;;;;10.30;63.00;;;;;;5084447;28;19913;-51
2021/04/01 15:43:01;;;;;;;;;;;10.10;63.10;;;;;;5083906;28;19931;-50
2021/04/01 15:45:27;;;;;;;;;;;10.30;63.00;;;;;;5082567;28;20365;-48
2021/04/01 15:47:53;;;;;;;;;;;9.70;62.50;;;;;;5086477;28;19911;-48
2021/04/01 15:50:19;;;;;;;;;;;9.70;64.20;;;;;;5085126;28;19908;-47
2021/04/01 15:52:47;;;;;;;;;;;10.30;63.20;;;;;;5082545;28;19920;-48
2021/04/01 15:55:13;;;;;;;;;;;9.90;63.70;;;;;;5075141;28;19912;-51
2021/04/01 15:57:39;;;;;;;;;;;9.70;66.60;;;;;;5075238;28;20279;-50
2021/04/01 16:00:06;;;;;;;;;;;9.50;65.90;;;;;;5077649;28;19919;-48
2021/04/01 16:02:32;;;;;;;;;;;9.50;66.60;;;;;;5081928;28;20286;-51
2021/04/01 16:04:58;;;;;;;;;;;9.50;65.90;;;;;;5093977;28;19912;-49
2021/04/01 16:07:24;;;;;;;;;;;9.50;67.70;;;;;;5082083;28;19915;-49
2021/04/01 16:09:50;;;;;;;;;;;9.80;68.50;;;;;;5088623;28;19920;-50
2021/04/01 16:12:16;;;;;;;;;;;9.60;68.50;;;;;;5082834;28;19985;-51
2021/04/01 16:14:42;;;;;;;;;;;9.80;66.30;;;;;;5078373;28;19947;-50
2021/04/01 16:17:08;;;;;;;;;;;9.90;67.90;;;;;;5083061;28;19916;-52
2021/04/01 16:19:34;;;;;;;;;;;10.10;66.60;;;;;;5079416;28;20436;-48
2021/04/01 16:22:00;;;;;;;;;;;10.00;66.70;;;;;;5086572;28;19912;-51
2021/04/01 16:24:26;;;;;;;;;;;9.90;64.80;;;;;;5085532;28;19920;-49
2021/04/01 16:26:52;;;;;;;;;;;9.40;66.10;;;;;;5096232;28;19919;-50
2021/04/01 16:29:18;;;;;;;;;;;9.30;67.70;;;;;;5088496;28;19920;-49